sim
Sign-in with your pilot id or email,
or register
Callsign
Passwort

Schedule Details

Flight Number: DLH474 (2)
Departure: Munich Airport (EDDM) at 14:15
Arrival: Montreal Pierre Elliott Trudeau Airport (CYUL) at 23:10
Route: Lufthansa Passenger Schedule. Enter filed route here before submitting Pirep.

Weather Information
Getting current METAR information for EDDM 291650Z 26007KT 9999 BKN017 11/09 Q1019 NOSIG
Getting current METAR information for CYUL 291653Z 23010KT 15SM -SHRA BKN015 BKN045 OVC110 18/15 A2979 RMK CU6SC1AC1 SLP090 DENSITY ALT 700FT

Schedule Frequency

Route Map